Time;durP1;ratioP1;P1;durP2;ratioP2;P2;SDS_P1;SDS_P2;PMS_P1;PMS_P2;Temp;Humidity;BMP_temperature;BMP_pressure;BME280_temperature;BME280_humidity;BME280_pressure;Samples;Min_cycle;Max_cycle;Signal;HPM_P1;HPM_P2
2023/04/21 00:02:26;;;;;;;11.77;5.68;;;;;;;;;;5034724;28;20088;-76
2023/04/21 00:04:52;;;;;;;8.65;4.85;;;;;;;;;;5016635;28;20140;-75
2023/04/21 00:07:19;;;;;;;16.73;6.25;;;;;;;;;;5034909;28;20032;-75
2023/04/21 00:09:45;;;;;;;12.57;5.57;;;;;;;;;;5015862;28;20075;-75
2023/04/21 00:12:11;;;;;;;10.07;5.68;;;;;;;;;;5038445;28;20033;-75
2023/04/21 00:14:38;;;;;;;14.45;6.00;;;;;;;;;;5034444;28;20022;-76
2023/04/21 00:17:05;;;;;;;11.85;6.20;;;;;;;;;;5035877;28;20269;-75
2023/04/21 00:19:31;;;;;;;12.43;6.07;;;;;;;;;;5034542;28;20064;-75
2023/04/21 00:21:58;;;;;;;12.27;6.43;;;;;;;;;;5031615;28;20040;-75
2023/04/21 00:24:27;;;;;;;9.23;5.15;;;;;;;;;;5012952;28;20021;-76
2023/04/21 00:26:53;;;;;;;7.03;4.97;;;;;;;;;;5032063;28;20031;-75
2023/04/21 00:29:19;;;;;;;11.52;5.95;;;;;;;;;;5031214;28;20456;-76
2023/04/21 00:31:45;;;;;;;8.50;5.20;;;;;;;;;;5013961;28;20028;-75
2023/04/21 00:34:11;;;;;;;8.93;5.20;;;;;;;;;;5035984;28;20355;-76
2023/04/21 00:36:37;;;;;;;11.30;6.40;;;;;;;;;;5032018;28;20029;-76
2023/04/21 00:39:03;;;;;;;10.15;4.90;;;;;;;;;;5031918;28;20497;-75
2023/04/21 00:41:29;;;;;;;12.60;5.60;;;;;;;;;;5005720;28;20041;-75
2023/04/21 00:44:06;;;;;;;8.98;5.20;;;;;;;;;;5010309;28;20050;-77
2023/04/21 00:46:33;;;;;;;8.02;5.13;;;;;;;;;;5013277;28;20025;-76
2023/04/21 00:48:59;;;;;;;8.98;5.10;;;;;;;;;;5029710;28;20309;-76
2023/04/21 00:51:27;;;;;;;14.05;6.38;;;;;;;;;;5005912;28;20056;-75
2023/04/21 00:53:53;;;;;;;14.70;6.60;;;;;;;;;;5031321;28;20017;-75
2023/04/21 00:56:20;;;;;;;15.80;6.90;;;;;;;;;;5013477;28;20067;-76
2023/04/21 00:58:48;;;;;;;13.02;6.38;;;;;;;;;;5012477;28;20028;-76
2023/04/21 01:01:14;;;;;;;14.73;6.13;;;;;;;;;;5034196;28;20045;-75
2023/04/21 01:03:40;;;;;;;13.68;6.78;;;;;;;;;;5012916;28;20557;-76
2023/04/21 01:06:07;;;;;;;16.63;8.40;;;;;;;;;;5015031;28;20083;-77
2023/04/21 01:08:33;;;;;;;15.13;6.93;;;;;;;;;;5016783;28;20052;-76
2023/04/21 01:10:59;;;;;;;14.18;7.35;;;;;;;;;;5030758;28;20079;-76
2023/04/21 01:13:25;;;;;;;15.75;6.93;;;;;;;;;;5007889;28;20384;-76
2023/04/21 01:15:51;;;;;;;16.85;6.60;;;;;;;;;;5035348;28;20021;-76
2023/04/21 01:18:18;;;;;;;13.82;6.57;;;;;;;;;;5013554;28;20486;-75
2023/04/21 01:20:44;;;;;;;16.50;7.50;;;;;;;;;;5030624;28;20037;-76
2023/04/21 01:23:10;;;;;;;15.73;7.57;;;;;;;;;;5030271;28;20071;-75
2023/04/21 01:25:36;;;;;;;19.48;9.00;;;;;;;;;;5012786;28;20037;-75
2023/04/21 01:28:02;;;;;;;17.63;7.53;;;;;;;;;;5030163;28;20536;-76
2023/04/21 01:30:29;;;;;;;18.08;7.93;;;;;;;;;;5029168;28;20041;-77
2023/04/21 01:32:57;;;;;;;17.88;8.55;;;;;;;;;;5029251;28;20027;-76
2023/04/21 01:35:23;;;;;;;16.50;6.90;;;;;;;;;;5031142;28;20680;-76
2023/04/21 01:37:49;;;;;;;14.52;7.30;;;;;;;;;;5029669;28;20037;-76
2023/04/21 01:40:15;;;;;;;14.20;6.43;;;;;;;;;;5028846;28;20136;-75
2023/04/21 01:42:42;;;;;;;16.23;7.40;;;;;;;;;;5029252;28;20533;-75
2023/04/21 01:45:09;;;;;;;16.08;7.20;;;;;;;;;;5012790;28;20032;-75
2023/04/21 01:47:35;;;;;;;17.85;6.72;;;;;;;;;;5011947;28;20079;-75
2023/04/21 01:50:01;;;;;;;13.25;6.32;;;;;;;;;;5029956;28;20430;-75
2023/04/21 01:52:27;;;;;;;15.27;6.70;;;;;;;;;;5020879;28;20036;-77
2023/04/21 01:54:53;;;;;;;15.50;6.40;;;;;;;;;;5013338;28;20029;-76
2023/04/21 01:57:19;;;;;;;15.20;7.15;;;;;;;;;;5031289;28;20070;-77
2023/04/21 01:59:45;;;;;;;19.00;7.90;;;;;;;;;;5009601;28;20469;-75
2023/04/21 02:02:11;;;;;;;17.40;8.20;;;;;;;;;;5028171;28;20061;-75
2023/04/21 02:04:37;;;;;;;18.23;7.82;;;;;;;;;;5013609;28;20018;-75
2023/04/21 02:07:03;;;;;;;18.80;7.47;;;;;;;;;;5038751;28;20084;-75
2023/04/21 02:09:30;;;;;;;19.17;8.52;;;;;;;;;;5022989;28;20104;-75
2023/04/21 02:11:56;;;;;;;19.88;7.78;;;;;;;;;;5021717;28;20100;-76
2023/04/21 02:14:22;;;;;;;15.15;7.78;;;;;;;;;;5041729;28;20041;-75
2023/04/21 02:16:48;;;;;;;17.20;7.32;;;;;;;;;;5041738;28;20081;-75
2023/04/21 02:19:14;;;;;;;22.08;7.80;;;;;;;;;;5022835;28;20025;-76
2023/04/21 02:21:40;;;;;;;19.80;8.48;;;;;;;;;;5024646;28;20048;-77
2023/04/21 02:24:06;;;;;;;17.42;7.80;;;;;;;;;;5015031;28;20025;-75
2023/04/21 02:26:32;;;;;;;17.77;6.95;;;;;;;;;;5036952;28;20033;-76
2023/04/21 02:28:58;;;;;;;15.32;8.32;;;;;;;;;;5033879;28;20024;-76
2023/04/21 02:31:24;;;;;;;17.95;7.00;;;;;;;;;;5018051;28;20021;-76
2023/04/21 02:33:50;;;;;;;20.55;7.60;;;;;;;;;;5031831;28;20028;-76
2023/04/21 02:36:16;;;;;;;17.42;8.15;;;;;;;;;;5037345;28;20049;-76
2023/04/21 02:38:42;;;;;;;14.65;7.03;;;;;;;;;;5033064;28;20029;-77
2023/04/21 02:41:08;;;;;;;19.00;6.80;;;;;;;;;;5017280;28;20037;-76
2023/04/21 02:43:34;;;;;;;15.80;6.93;;;;;;;;;;5018304;28;20217;-78
2023/04/21 02:46:05;;;;;;;14.65;6.65;;;;;;;;;;5039164;28;20032;-76
2023/04/21 02:48:31;;;;;;;17.08;8.23;;;;;;;;;;5018925;28;20693;-76
2023/04/21 02:50:56;;;;;;;20.58;7.60;;;;;;;;;;5034074;28;20276;-75
2023/04/21 02:53:22;;;;;;;21.80;8.07;;;;;;;;;;5036338;28;20028;-76
2023/04/21 02:55:49;;;;;;;17.27;7.68;;;;;;;;;;5023414;28;20340;-76
2023/04/21 02:58:15;;;;;;;23.17;9.63;;;;;;;;;;5018607;28;20133;-75
2023/04/21 03:00:41;;;;;;;21.90;8.63;;;;;;;;;;5034292;28;20397;-76
2023/04/21 03:03:07;;;;;;;18.75;7.50;;;;;;;;;;5035472;28;20045;-76
2023/04/21 03:05:33;;;;;;;22.20;7.93;;;;;;;;;;5031223;28;20033;-76
2023/04/21 03:07:59;;;;;;;26.88;8.93;;;;;;;;;;5031106;28;20036;-76
2023/04/21 03:10:25;;;;;;;22.92;7.63;;;;;;;;;;5025467;28;20033;-76
2023/04/21 03:12:52;;;;;;;19.00;7.10;;;;;;;;;;5030676;28;20022;-76
2023/04/21 03:15:18;;;;;;;17.02;6.55;;;;;;;;;;5031478;28;20381;-76
2023/04/21 03:17:44;;;;;;;12.07;6.25;;;;;;;;;;5032830;28;20036;-75
2023/04/21 03:20:11;;;;;;;15.30;6.90;;;;;;;;;;5013351;28;20022;-75
2023/04/21 03:22:38;;;;;;;16.75;7.78;;;;;;;;;;5015151;28;20032;-75
2023/04/21 03:25:04;;;;;;;19.48;7.03;;;;;;;;;;5017204;28;20132;-75
2023/04/21 03:27:32;;;;;;;21.23;8.25;;;;;;;;;;5034540;28;20036;-75
2023/04/21 03:29:58;;;;;;;17.58;6.97;;;;;;;;;;5017258;28;20064;-75
2023/04/21 03:32:24;;;;;;;21.02;7.53;;;;;;;;;;5038157;28;20025;-75
2023/04/21 03:34:50;;;;;;;26.75;9.07;;;;;;;;;;5017350;28;20633;-75
2023/04/21 03:37:16;;;;;;;27.33;11.32;;;;;;;;;;5019603;28;20369;-76
2023/04/21 03:39:42;;;;;;;23.10;9.57;;;;;;;;;;5016468;28;20035;-75
2023/04/21 03:42:08;;;;;;;30.30;11.90;;;;;;;;;;5037233;28;20122;-75
2023/04/21 03:44:34;;;;;;;24.63;10.13;;;;;;;;;;5016281;28;20437;-75
2023/04/21 03:47:02;;;;;;;22.90;9.13;;;;;;;;;;5020467;28;20033;-75
2023/04/21 03:49:28;;;;;;;17.85;9.32;;;;;;;;;;5037801;28;20022;-76
2023/04/21 03:51:54;;;;;;;17.33;8.20;;;;;;;;;;5037514;28;20029;-76
2023/04/21 03:54:20;;;;;;;22.88;8.85;;;;;;;;;;5036051;28;20033;-75
2023/04/21 03:56:46;;;;;;;30.90;11.30;;;;;;;;;;5019620;28;20500;-75
2023/04/21 03:59:12;;;;;;;23.10;9.43;;;;;;;;;;5018028;28;20118;-76
2023/04/21 04:01:38;;;;;;;30.92;10.82;;;;;;;;;;5020399;28;20039;-75
2023/04/21 04:04:04;;;;;;;25.02;9.65;;;;;;;;;;5037030;28;20104;-74
2023/04/21 04:06:31;;;;;;;24.40;9.27;;;;;;;;;;5017107;28;20025;-75
2023/04/21 04:08:57;;;;;;;24.30;9.88;;;;;;;;;;5021551;28;20056;-75
2023/04/21 04:11:23;;;;;;;27.17;11.15;;;;;;;;;;5037758;28;20371;-76
2023/04/21 04:13:49;;;;;;;22.40;9.90;;;;;;;;;;5025709;28;20026;-76
2023/04/21 04:16:15;;;;;;;29.30;10.07;;;;;;;;;;5021759;28;20056;-75
2023/04/21 04:18:41;;;;;;;27.50;11.60;;;;;;;;;;5036193;28;20041;-75
2023/04/21 04:21:07;;;;;;;21.67;9.90;;;;;;;;;;5016648;28;20087;-75
2023/04/21 04:23:34;;;;;;;22.52;9.25;;;;;;;;;;5035891;28;20025;-75
2023/04/21 04:26:00;;;;;;;20.77;9.52;;;;;;;;;;5036132;28;20033;-75
2023/04/21 04:28:27;;;;;;;24.83;9.45;;;;;;;;;;5026812;28;20018;-75
2023/04/21 04:30:54;;;;;;;32.88;11.05;;;;;;;;;;5036510;28;20481;-75
2023/04/21 04:33:20;;;;;;;35.35;11.88;;;;;;;;;;5036298;28;20459;-75
2023/04/21 04:35:46;;;;;;;33.42;11.38;;;;;;;;;;5034650;28;20084;-76
2023/04/21 04:38:14;;;;;;;25.73;8.90;;;;;;;;;;5017365;28;20355;-75
2023/04/21 04:40:41;;;;;;;20.75;10.18;;;;;;;;;;5034970;28;20075;-75
2023/04/21 04:43:09;;;;;;;29.27;10.45;;;;;;;;;;5015396;28;20056;-75
2023/04/21 04:45:36;;;;;;;30.38;10.15;;;;;;;;;;5018190;28;20066;-75
2023/04/21 04:48:03;;;;;;;36.50;10.70;;;;;;;;;;5033768;28;20018;-75
2023/04/21 04:50:29;;;;;;;24.63;9.45;;;;;;;;;;5015717;28;20505;-75
2023/04/21 04:52:56;;;;;;;25.77;9.82;;;;;;;;;;5033954;28;20454;-75
2023/04/21 04:55:22;;;;;;;24.92;10.15;;;;;;;;;;5015243;28;20394;-75
2023/04/21 04:57:48;;;;;;;21.95;9.32;;;;;;;;;;5034320;28;20029;-75
2023/04/21 05:00:14;;;;;;;24.98;9.82;;;;;;;;;;5035459;28;20050;-75
2023/04/21 05:02:41;;;;;;;21.38;10.20;;;;;;;;;;5036267;28;20026;-75
2023/04/21 05:05:07;;;;;;;24.15;9.38;;;;;;;;;;5042459;28;20040;-76
2023/04/21 05:07:36;;;;;;;25.60;11.02;;;;;;;;;;5039368;28;20025;-76
2023/04/21 05:10:03;;;;;;;26.83;10.15;;;;;;;;;;5023446;28;20091;-75
2023/04/21 05:12:31;;;;;;;27.00;9.48;;;;;;;;;;5023027;28;20021;-75
2023/04/21 05:14:57;;;;;;;32.90;12.38;;;;;;;;;;5023492;28;20478;-76
2023/04/21 05:17:23;;;;;;;27.33;10.50;;;;;;;;;;5022998;28;20031;-77
2023/04/21 05:19:49;;;;;;;31.83;11.98;;;;;;;;;;5019125;28;20092;-76
2023/04/21 05:22:15;;;;;;;23.40;10.23;;;;;;;;;;5032547;28;20511;-76
2023/04/21 05:24:42;;;;;;;26.65;11.85;;;;;;;;;;5033499;28;20138;-75
2023/04/21 05:27:08;;;;;;;24.08;11.50;;;;;;;;;;5035225;28;20017;-75
2023/04/21 05:29:35;;;;;;;24.05;11.20;;;;;;;;;;5016178;28;20072;-75
2023/04/21 05:32:01;;;;;;;32.00;12.13;;;;;;;;;;5033609;28;20025;-76
2023/04/21 05:34:27;;;;;;;33.67;12.35;;;;;;;;;;5032688;28;20020;-76
2023/04/21 05:36:53;;;;;;;32.05;12.43;;;;;;;;;;5036144;28;20095;-76
2023/04/21 05:39:19;;;;;;;31.85;11.02;;;;;;;;;;5034314;28;20033;-76
2023/04/21 05:41:45;;;;;;;41.72;14.88;;;;;;;;;;5015446;28;20040;-77
2023/04/21 05:44:11;;;;;;;37.83;13.63;;;;;;;;;;5034968;28;20049;-76
2023/04/21 05:46:37;;;;;;;43.95;14.15;;;;;;;;;;5037430;28;20034;-76
2023/04/21 05:49:03;;;;;;;46.78;16.30;;;;;;;;;;5039271;28;20030;-77
2023/04/21 05:51:30;;;;;;;31.55;14.15;;;;;;;;;;5040756;28;20035;-76
2023/04/21 05:53:57;;;;;;;31.23;11.95;;;;;;;;;;5015877;28;20017;-77
2023/04/21 05:56:22;;;;;;;39.88;15.35;;;;;;;;;;5037448;28;20057;-78
2023/04/21 05:58:48;;;;;;;42.17;16.30;;;;;;;;;;5022887;28;20037;-78
2023/04/21 06:01:14;;;;;;;34.58;14.77;;;;;;;;;;5024920;28;20091;-78
2023/04/21 06:03:41;;;;;;;32.42;13.73;;;;;;;;;;5044002;28;20081;-78
2023/04/21 06:06:08;;;;;;;37.38;12.98;;;;;;;;;;5043560;28;20063;-78
2023/04/21 06:08:34;;;;;;;37.25;14.85;;;;;;;;;;5040928;28;20032;-78
2023/04/21 06:11:00;;;;;;;34.53;13.95;;;;;;;;;;5042962;28;20044;-77
2023/04/21 06:13:26;;;;;;;26.48;12.88;;;;;;;;;;5043901;28;20063;-77
2023/04/21 06:15:53;;;;;;;29.30;12.07;;;;;;;;;;5026302;28;20091;-77
2023/04/21 06:18:19;;;;;;;26.02;13.85;;;;;;;;;;5023597;28;20032;-76
2023/04/21 06:20:54;;;;;;;26.55;12.20;;;;;;;;;;5025294;28;20037;-76
2023/04/21 06:23:20;;;;;;;21.20;10.55;;;;;;;;;;5026308;28;20190;-77
2023/04/21 06:25:47;;;;;;;23.35;11.52;;;;;;;;;;5024190;28;20061;-77
2023/04/21 06:28:13;;;;;;;23.48;11.50;;;;;;;;;;5035299;28;20133;-76
2023/04/21 06:30:39;;;;;;;24.17;11.15;;;;;;;;;;5020162;28;20353;-76
2023/04/21 06:33:05;;;;;;;21.33;10.27;;;;;;;;;;5018492;28;20033;-76
2023/04/21 06:35:31;;;;;;;22.25;10.43;;;;;;;;;;5021100;28;20032;-76
2023/04/21 06:37:57;;;;;;;22.25;11.18;;;;;;;;;;5018478;28;20112;-76
2023/04/21 06:40:23;;;;;;;22.65;11.13;;;;;;;;;;5018853;28;20064;-76
2023/04/21 06:42:49;;;;;;;17.65;9.30;;;;;;;;;;5041486;28;20088;-76
2023/04/21 06:45:15;;;;;;;16.77;9.10;;;;;;;;;;5036516;28;20021;-76
2023/04/21 06:47:41;;;;;;;12.25;5.85;;;;;;;;;;5034039;28;20474;-76
2023/04/21 06:50:07;;;;;;;9.68;6.25;;;;;;;;;;5037244;28;20078;-76
2023/04/21 06:52:34;;;;;;;7.72;5.38;;;;;;;;;;5017551;28;20497;-76
2023/04/21 06:55:00;;;;;;;9.18;5.57;;;;;;;;;;5014661;28;20392;-76
2023/04/21 06:57:26;;;;;;;8.45;5.45;;;;;;;;;;5025845;28;20105;-76
2023/04/21 06:59:52;;;;;;;6.30;4.80;;;;;;;;;;5033777;28;20072;-76
2023/04/21 07:02:18;;;;;;;6.82;4.45;;;;;;;;;;5035782;28;20095;-76
2023/04/21 07:04:44;;;;;;;5.78;4.25;;;;;;;;;;5019747;28;20017;-76
2023/04/21 07:07:10;;;;;;;5.95;3.38;;;;;;;;;;5019462;28;20126;-76
2023/04/21 07:09:36;;;;;;;4.35;3.30;;;;;;;;;;5014874;28;20306;-75
2023/04/21 07:12:02;;;;;;;3.25;2.92;;;;;;;;;;5031546;28;20642;-76
2023/04/21 07:14:28;;;;;;;6.38;3.33;;;;;;;;;;5033445;28;20086;-75
2023/04/21 07:16:55;;;;;;;4.72;3.65;;;;;;;;;;5032719;28;20263;-76
2023/04/21 07:19:22;;;;;;;5.25;3.92;;;;;;;;;;5032362;28;20021;-75
2023/04/21 07:21:48;;;;;;;5.72;3.65;;;;;;;;;;5014879;28;20083;-75
2023/04/21 07:24:14;;;;;;;5.25;3.63;;;;;;;;;;5012687;28;20083;-75
2023/04/21 07:26:40;;;;;;;4.20;3.17;;;;;;;;;;5015461;28;20029;-77
2023/04/21 07:29:05;;;;;;;6.18;4.05;;;;;;;;;;5032490;28;20018;-76
2023/04/21 07:31:31;;;;;;;6.03;3.38;;;;;;;;;;5013088;28;20056;-76
2023/04/21 07:33:57;;;;;;;4.07;3.10;;;;;;;;;;5031077;28;20040;-76
2023/04/21 07:36:25;;;;;;;4.57;2.92;;;;;;;;;;5021939;28;20037;-77
2023/04/21 07:38:51;;;;;;;3.17;2.83;;;;;;;;;;5016710;28;20013;-77
2023/04/21 07:41:17;;;;;;;4.25;3.13;;;;;;;;;;5031062;28;20025;-76
2023/04/21 07:43:45;;;;;;;4.03;2.25;;;;;;;;;;5012625;28;20036;-76
2023/04/21 07:46:12;;;;;;;3.00;2.33;;;;;;;;;;5013550;28;20021;-75
2023/04/21 07:48:38;;;;;;;4.28;2.83;;;;;;;;;;5015305;28;20264;-76
2023/04/21 07:51:04;;;;;;;4.32;3.35;;;;;;;;;;5017441;28;20037;-77
2023/04/21 07:53:30;;;;;;;2.88;2.30;;;;;;;;;;5006028;28;20104;-76
2023/04/21 07:55:56;;;;;;;4.18;3.05;;;;;;;;;;5031416;28;20253;-77
2023/04/21 07:58:22;;;;;;;6.53;2.90;;;;;;;;;;5008833;28;20033;-76
2023/04/21 08:00:49;;;;;;;4.47;3.58;;;;;;;;;;5011644;28;20045;-76
2023/04/21 08:03:15;;;;;;;4.50;2.88;;;;;;;;;;5010281;28;20667;-77
2023/04/21 08:05:41;;;;;;;3.05;2.22;;;;;;;;;;5005355;28;20209;-75
2023/04/21 08:08:07;;;;;;;4.80;3.55;;;;;;;;;;5027672;28;20022;-76
2023/04/21 08:10:33;;;;;;;4.90;2.90;;;;;;;;;;5021352;28;20033;-76
2023/04/21 08:12:59;;;;;;;2.88;2.67;;;;;;;;;;5038151;28;20041;-76
2023/04/21 08:15:25;;;;;;;2.83;2.38;;;;;;;;;;5027108;28;20033;-76
2023/04/21 08:17:52;;;;;;;42.00;20.52;;;;;;;;;;5031886;28;20079;-77
2023/04/21 08:20:18;;;;;;;3.38;2.47;;;;;;;;;;5034999;28;20493;-77
2023/04/21 08:22:44;;;;;;;3.85;2.90;;;;;;;;;;5031601;28;20069;-75
2023/04/21 08:25:10;;;;;;;3.60;2.30;;;;;;;;;;5034169;28;20024;-75
2023/04/21 08:27:39;;;;;;;3.00;2.70;;;;;;;;;;5030129;28;20299;-77
2023/04/21 08:30:06;;;;;;;2.65;2.22;;;;;;;;;;5023629;28;20022;-76
2023/04/21 08:32:32;;;;;;;2.25;2.05;;;;;;;;;;5007431;28;20045;-75
2023/04/21 08:34:58;;;;;;;2.63;2.28;;;;;;;;;;5019300;28;20219;-75
2023/04/21 08:37:24;;;;;;;2.75;2.13;;;;;;;;;;5032997;28;20115;-76
2023/04/21 08:39:50;;;;;;;2.42;2.08;;;;;;;;;;5020262;28;20297;-78
2023/04/21 08:42:17;;;;;;;3.13;2.65;;;;;;;;;;5035165;28;20268;-76
2023/04/21 08:44:44;;;;;;;4.22;2.40;;;;;;;;;;5031670;28;20032;-76
2023/04/21 08:47:10;;;;;;;3.03;2.63;;;;;;;;;;5035172;28;20037;-76
2023/04/21 08:49:37;;;;;;;4.97;2.95;;;;;;;;;;5041141;28;20041;-75
2023/04/21 08:52:03;;;;;;;3.42;2.67;;;;;;;;;;5032474;28;20559;-77
2023/04/21 08:54:30;;;;;;;3.83;2.58;;;;;;;;;;5031183;28;20100;-77
2023/04/21 08:56:56;;;;;;;3.80;2.63;;;;;;;;;;5029891;28;20096;-77
2023/04/21 08:59:22;;;;;;;4.13;2.75;;;;;;;;;;5036994;28;20048;-75
2023/04/21 09:02:10;;;;;;;2.75;2.25;;;;;;;;;;5029071;28;20559;-77
2023/04/21 09:04:40;;;;;;;3.90;2.85;;;;;;;;;;5015311;28;20132;-76
2023/04/21 09:07:07;;;;;;;5.43;3.15;;;;;;;;;;5031763;28;20073;-77
2023/04/21 09:09:33;;;;;;;3.20;2.72;;;;;;;;;;5013810;28;20375;-77
2023/04/21 09:12:00;;;;;;;9.95;5.85;;;;;;;;;;5029763;28;20087;-76
2023/04/21 09:14:32;;;;;;;4.82;3.20;;;;;;;;;;5004732;28;20124;-76
2023/04/21 09:16:59;;;;;;;4.40;3.03;;;;;;;;;;5021869;28;20470;-77
2023/04/21 09:19:29;;;;;;;4.25;3.15;;;;;;;;;;5030855;28;20381;-75
2023/04/21 09:21:56;;;;;;;4.03;3.45;;;;;;;;;;5001842;28;20694;-76
2023/04/21 09:24:22;;;;;;;4.65;2.92;;;;;;;;;;5003378;28;20371;-78
2023/04/21 09:26:52;;;;;;;2.65;2.30;;;;;;;;;;5004694;28;20025;-77
2023/04/21 09:29:18;;;;;;;;;;;;;;;;;;5008520;28;20585;-77
2023/04/21 09:31:44;;;;;;;3.72;2.83;;;;;;;;;;5015952;28;19988;-76
2023/04/21 09:34:21;;;;;;;4.63;3.13;;;;;;;;;;5009399;28;20177;-76
2023/04/21 09:36:48;;;;;;;6.80;4.00;;;;;;;;;;5018652;28;20105;-77
2023/04/21 09:39:14;;;;;;;14.48;7.85;;;;;;;;;;5019539;28;20030;-77
2023/04/21 09:41:40;;;;;;;7.65;4.07;;;;;;;;;;5019467;28;20530;-76
2023/04/21 09:44:06;;;;;;;13.07;7.97;;;;;;;;;;5024174;28;20544;-77
2023/04/21 09:46:33;;;;;;;5.53;3.92;;;;;;;;;;5018348;28;20022;-77
2023/04/21 09:49:02;;;;;;;9.38;5.40;;;;;;;;;;5026571;28;20489;-76
2023/04/21 09:51:30;;;;;;;15.65;6.32;;;;;;;;;;5026877;28;20474;-76
2023/04/21 09:54:00;;;;;;;10.75;4.63;;;;;;;;;;5029849;28;20571;-76
2023/04/21 09:56:29;;;;;;;4.13;2.88;;;;;;;;;;5024136;28;20029;-78
2023/04/21 09:58:57;;;;;;;5.38;2.78;;;;;;;;;;5034956;28;20069;-77
2023/04/21 10:01:27;;;;;;;9.63;5.30;;;;;;;;;;4999348;28;20084;-76
2023/04/21 10:03:53;;;;;;;3.97;2.70;;;;;;;;;;5012547;28;20109;-76
2023/04/21 10:06:19;;;;;;;4.35;3.00;;;;;;;;;;4995360;28;20034;-78
2023/04/21 10:08:45;;;;;;;4.55;2.90;;;;;;;;;;5011870;28;20128;-76
2023/04/21 10:11:15;;;;;;;4.18;2.40;;;;;;;;;;4996137;28;20049;-79
2023/04/21 10:13:41;;;;;;;;;;;;;;;;;;5022057;28;20090;-77
2023/04/21 10:16:10;;;;;;;3.58;3.03;;;;;;;;;;5019666;28;19901;-76
2023/04/21 10:18:43;;;;;;;3.53;2.03;;;;;;;;;;5024831;28;20232;-77
2023/04/21 10:21:10;;;;;;;2.47;2.28;;;;;;;;;;5017497;28;20033;-77
2023/04/21 10:23:36;;;;;;;4.35;2.60;;;;;;;;;;5012236;28;20395;-77
2023/04/21 10:26:05;;;;;;;5.47;3.65;;;;;;;;;;5012891;28;20436;-77
2023/04/21 10:28:41;;;;;;;6.90;3.60;;;;;;;;;;5010772;28;20233;-77
2023/04/21 10:31:27;;;;;;;4.28;2.55;;;;;;;;;;4996438;28;20117;-77
2023/04/21 10:34:13;;;;;;;3.58;2.45;;;;;;;;;;5003084;28;20037;-77
2023/04/21 10:36:44;;;;;;;3.88;2.40;;;;;;;;;;5021755;28;20026;-77
2023/04/21 10:39:11;;;;;;;3.47;2.55;;;;;;;;;;5011372;28;20045;-78
2023/04/21 10:41:38;;;;;;;9.40;4.40;;;;;;;;;;5004829;28;20030;-76
2023/04/21 10:44:07;;;;;;;6.78;2.45;;;;;;;;;;5017719;28;20049;-75
2023/04/21 10:46:34;;;;;;;3.40;2.70;;;;;;;;;;5015667;28;20084;-77
2023/04/21 10:49:07;;;;;;;3.42;2.60;;;;;;;;;;5013433;28;20041;-77
2023/04/21 10:51:53;;;;;;;4.63;3.70;;;;;;;;;;5007688;28;20026;-77
2023/04/21 10:54:21;;;;;;;3.17;2.88;;;;;;;;;;5000154;28;20100;-76
2023/04/21 10:56:48;;;;;;;3.22;2.20;;;;;;;;;;4995554;28;20618;-76
2023/04/21 10:59:15;;;;;;;5.53;2.65;;;;;;;;;;5018955;28;20214;-77
2023/04/21 11:01:42;;;;;;;2.75;2.50;;;;;;;;;;5021109;28;20345;-76
2023/04/21 11:04:13;;;;;;;3.45;1.98;;;;;;;;;;5035263;28;20021;-77
2023/04/21 11:06:39;;;;;;;2.60;2.40;;;;;;;;;;5017400;28;20029;-77
2023/04/21 11:09:05;;;;;;;10.73;2.47;;;;;;;;;;5034438;28;20363;-76
2023/04/21 11:11:31;;;;;;;2.63;1.88;;;;;;;;;;5038405;28;20017;-76
2023/04/21 11:14:00;;;;;;;3.35;2.50;;;;;;;;;;5034102;28;20021;-76
2023/04/21 11:16:26;;;;;;;2.85;2.55;;;;;;;;;;5037186;28;20037;-77
2023/04/21 11:18:52;;;;;;;2.97;2.28;;;;;;;;;;5032679;28;20472;-76
2023/04/21 11:21:20;;;;;;;3.33;2.33;;;;;;;;;;5033567;28;20096;-77
2023/04/21 11:23:53;;;;;;;4.28;2.20;;;;;;;;;;5016192;28;20025;-77
2023/04/21 11:26:37;;;;;;;3.70;2.90;;;;;;;;;;5028995;28;20045;-77
2023/04/21 11:29:05;;;;;;;3.78;2.75;;;;;;;;;;5011952;28;20085;-76
2023/04/21 11:31:31;;;;;;;3.33;2.63;;;;;;;;;;5030200;28;20033;-77
2023/04/21 11:34:00;;;;;;;2.78;2.55;;;;;;;;;;5028509;28;20175;-76
2023/04/21 11:36:28;;;;;;;2.80;2.50;;;;;;;;;;5027903;28;20033;-77
2023/04/21 11:38:54;;;;;;;3.08;2.58;;;;;;;;;;5025731;28;20378;-76
2023/04/21 11:41:21;;;;;;;2.40;2.20;;;;;;;;;;5021575;28;20053;-76
2023/04/21 11:43:48;;;;;;;6.47;2.75;;;;;;;;;;5013252;28;20057;-76
2023/04/21 11:46:18;;;;;;;4.50;2.95;;;;;;;;;;5012416;28;20026;-78
2023/04/21 11:48:44;;;;;;;2.83;2.42;;;;;;;;;;5020610;28;20048;-77
2023/04/21 11:51:17;;;;;;;4.82;2.97;;;;;;;;;;5027231;28;20101;-77
2023/04/21 11:53:46;;;;;;;5.20;2.75;;;;;;;;;;5039026;28;20301;-77
2023/04/21 11:56:17;;;;;;;4.80;3.17;;;;;;;;;;5043445;28;20229;-76
2023/04/21 11:58:44;;;;;;;3.83;3.28;;;;;;;;;;5043592;28;20029;-76
2023/04/21 12:01:10;;;;;;;9.68;3.42;;;;;;;;;;5025393;28;20053;-76
2023/04/21 12:03:37;;;;;;;5.22;2.97;;;;;;;;;;5042167;28;20056;-77
2023/04/21 12:06:03;;;;;;;3.85;2.85;;;;;;;;;;5018393;28;20056;-77
2023/04/21 12:08:29;;;;;;;7.05;3.00;;;;;;;;;;5031258;28;20040;-77
2023/04/21 12:10:55;;;;;;;4.95;2.45;;;;;;;;;;5035089;28;20031;-77
2023/04/21 12:13:22;;;;;;;2.80;2.30;;;;;;;;;;5032463;28;20037;-76
2023/04/21 12:15:48;;;;;;;4.50;3.10;;;;;;;;;;5015339;28;20445;-76
2023/04/21 12:18:14;;;;;;;5.78;3.10;;;;;;;;;;5014532;28;20029;-77
2023/04/21 12:20:51;;;;;;;3.05;2.58;;;;;;;;;;5030086;28;20029;-77
2023/04/21 12:23:17;;;;;;;16.02;2.78;;;;;;;;;;5033484;28;20543;-76
2023/04/21 12:25:44;;;;;;;2.63;2.03;;;;;;;;;;5033842;28;20028;-77
2023/04/21 12:28:10;;;;;;;5.07;2.92;;;;;;;;;;5032488;28;20328;-76
2023/04/21 12:30:36;;;;;;;3.08;2.70;;;;;;;;;;5015652;28;20022;-76
2023/04/21 12:33:02;;;;;;;3.38;2.22;;;;;;;;;;5033404;28;20087;-77
2023/04/21 12:35:29;;;;;;;3.85;2.33;;;;;;;;;;5036021;28;20021;-77
2023/04/21 12:37:55;;;;;;;5.03;2.78;;;;;;;;;;5018491;28;20029;-77
2023/04/21 12:40:21;;;;;;;3.17;2.22;;;;;;;;;;5037123;28;20304;-77
2023/04/21 12:42:47;;;;;;;3.22;2.75;;;;;;;;;;5034682;28;20367;-77
2023/04/21 12:45:13;;;;;;;2.88;2.58;;;;;;;;;;5037483;28;20025;-78
2023/04/21 12:47:41;;;;;;;2.65;2.40;;;;;;;;;;5041874;28;20025;-77
2023/04/21 12:50:07;;;;;;;3.03;2.50;;;;;;;;;;5043091;28;20026;-77
2023/04/21 12:52:33;;;;;;;3.33;2.38;;;;;;;;;;5018728;28;20064;-76
2023/04/21 12:54:59;;;;;;;2.50;2.17;;;;;;;;;;5038641;28;20111;-76
2023/04/21 12:57:25;;;;;;;5.15;2.67;;;;;;;;;;5037930;28;20018;-76
2023/04/21 12:59:51;;;;;;;2.42;2.22;;;;;;;;;;5037804;28;20037;-77
2023/04/21 13:02:17;;;;;;;4.00;3.15;;;;;;;;;;5036704;28;20490;-76
2023/04/21 13:04:43;;;;;;;3.03;2.72;;;;;;;;;;5019851;28;20045;-77
2023/04/21 13:07:10;;;;;;;4.13;2.95;;;;;;;;;;5020813;28;20437;-77
2023/04/21 13:09:35;;;;;;;4.95;3.05;;;;;;;;;;5037124;28;20113;-76
2023/04/21 13:12:02;;;;;;;4.88;3.10;;;;;;;;;;5034170;28;20057;-76
2023/04/21 13:14:28;;;;;;;3.60;2.65;;;;;;;;;;5022039;28;20029;-76
2023/04/21 13:16:55;;;;;;;6.03;2.83;;;;;;;;;;4989974;28;20028;-76
2023/04/21 13:19:21;;;;;;;5.22;3.10;;;;;;;;;;5013394;28;20037;-76
2023/04/21 13:21:47;;;;;;;3.50;2.47;;;;;;;;;;4994763;28;20038;-76
2023/04/21 13:24:13;;;;;;;5.72;2.55;;;;;;;;;;4996041;28;20028;-77
2023/04/21 13:26:39;;;;;;;3.22;2.50;;;;;;;;;;5015229;28;20034;-76
2023/04/21 13:29:05;;;;;;;3.40;3.10;;;;;;;;;;5017955;28;20263;-76
2023/04/21 13:31:31;;;;;;;5.13;3.08;;;;;;;;;;5018506;28;20022;-77
2023/04/21 13:33:58;;;;;;;4.20;2.92;;;;;;;;;;5016758;28;20044;-76
2023/04/21 13:36:24;;;;;;;3.92;3.33;;;;;;;;;;5017117;28;20034;-76
2023/04/21 13:38:52;;;;;;;3.92;2.95;;;;;;;;;;5016293;28;20492;-76
2023/04/21 13:41:18;;;;;;;4.03;3.55;;;;;;;;;;5012793;28;20034;-77
2023/04/21 13:43:45;;;;;;;4.32;3.60;;;;;;;;;;5016115;28;20052;-76
2023/04/21 13:46:13;;;;;;;10.35;3.45;;;;;;;;;;5014577;28;20465;-77
2023/04/21 13:48:39;;;;;;;4.25;2.85;;;;;;;;;;4996976;28;20129;-76
2023/04/21 13:51:05;;;;;;;6.20;3.33;;;;;;;;;;5014066;28;20064;-76
2023/04/21 13:53:31;;;;;;;5.05;3.70;;;;;;;;;;4998857;28;20026;-76
2023/04/21 13:55:58;;;;;;;6.15;3.20;;;;;;;;;;4996388;28;20026;-76
2023/04/21 13:58:24;;;;;;;5.15;3.88;;;;;;;;;;5010275;28;20121;-76
2023/04/21 14:00:50;;;;;;;4.15;3.28;;;;;;;;;;5006092;28;20065;-75
2023/04/21 14:03:16;;;;;;;7.25;3.63;;;;;;;;;;5013593;28;20038;-76
2023/04/21 14:05:42;;;;;;;4.88;3.67;;;;;;;;;;5011297;28;20029;-75
2023/04/21 14:08:08;;;;;;;4.90;3.30;;;;;;;;;;5009666;28;20478;-76
2023/04/21 14:10:34;;;;;;;5.25;3.45;;;;;;;;;;5011335;28;20068;-76
2023/04/21 14:13:00;;;;;;;6.75;3.80;;;;;;;;;;5012853;28;20041;-77
2023/04/21 14:15:26;;;;;;;4.03;3.17;;;;;;;;;;4995840;28;20036;-76
2023/04/21 14:17:52;;;;;;;4.93;3.25;;;;;;;;;;5012228;28;20025;-77
2023/04/21 14:20:19;;;;;;;13.80;3.80;;;;;;;;;;4995283;28;20029;-76
2023/04/21 14:22:45;;;;;;;4.63;3.30;;;;;;;;;;5012517;28;20371;-77
2023/04/21 14:25:11;;;;;;;4.57;3.22;;;;;;;;;;5012747;28;20045;-76
2023/04/21 14:27:37;;;;;;;5.03;3.30;;;;;;;;;;5008340;28;20550;-78
2023/04/21 14:30:03;;;;;;;3.33;2.95;;;;;;;;;;5009782;28;20104;-78
2023/04/21 14:32:29;;;;;;;4.60;2.80;;;;;;;;;;5011737;28;20022;-77
2023/04/21 14:34:57;;;;;;;3.42;2.70;;;;;;;;;;5010215;28;20118;-77